createdAt,value
2024-01-20T00:01:32.596Z,33.40
2024-01-20T00:04:41.798Z,33.80
2024-01-20T00:07:52.474Z,33.50
2024-01-20T00:11:04.149Z,33.30
2024-01-20T00:14:16.980Z,33.20
2024-01-20T00:17:29.883Z,33.20
2024-01-20T00:20:49.467Z,33.40
2024-01-20T00:24:03.208Z,33.00
2024-01-20T00:27:16.365Z,32.40
2024-01-20T00:30:30.171Z,32.70
2024-01-20T00:33:41.999Z,33.00
2024-01-20T00:36:55.051Z,33.00
2024-01-20T00:40:08.500Z,32.90
2024-01-20T00:43:20.410Z,33.00
2024-01-20T00:46:33.882Z,33.00
2024-01-20T00:49:45.707Z,33.10
2024-01-20T00:52:57.982Z,33.30
2024-01-20T00:56:07.647Z,33.30
2024-01-20T00:59:19.223Z,34.00
2024-01-20T01:02:31.757Z,34.30
2024-01-20T01:05:40.977Z,34.30
2024-01-20T01:08:54.820Z,33.90
2024-01-20T01:12:07.878Z,33.70
2024-01-20T01:18:35.990Z,32.80
2024-01-20T01:21:49.358Z,32.70
2024-01-20T01:28:17.551Z,32.70
2024-01-20T01:31:29.025Z,32.80
2024-01-20T01:34:41.963Z,32.80
2024-01-20T01:37:56.792Z,32.80
2024-01-20T01:41:08.021Z,32.90
2024-01-20T01:44:18.117Z,33.00
2024-01-20T01:47:29.303Z,33.00
2024-01-20T01:50:39.883Z,33.10
2024-01-20T01:53:48.140Z,33.10
2024-01-20T01:57:02.096Z,33.20
2024-01-20T02:00:17.586Z,33.10
2024-01-20T02:03:28.812Z,33.20
2024-01-20T02:06:42.540Z,33.40
2024-01-20T02:09:56.503Z,33.30
2024-01-20T02:13:08.745Z,33.10
2024-01-20T02:16:22.490Z,33.20
2024-01-20T02:19:34.444Z,33.10
2024-01-20T02:22:46.772Z,33.20
2024-01-20T02:26:00.494Z,33.40
2024-01-20T02:29:11.272Z,34.20
2024-01-20T02:32:21.910Z,33.90
2024-01-20T02:35:31.995Z,33.90
2024-01-20T02:38:41.872Z,34.10
2024-01-20T02:41:52.661Z,34.20
2024-01-20T02:45:05.784Z,34.30
2024-01-20T02:48:15.707Z,34.30
2024-01-20T02:51:27.565Z,34.30
2024-01-20T02:54:38.344Z,34.30
2024-01-20T02:57:48.441Z,34.30
2024-01-20T03:00:59.721Z,34.30
2024-01-20T03:04:13.336Z,34.30
2024-01-20T03:07:24.851Z,34.70
2024-01-20T03:10:38.244Z,35.10
2024-01-20T03:13:48.511Z,34.80
2024-01-20T03:17:00.535Z,34.50
2024-01-20T03:20:18.922Z,34.80
2024-01-20T03:23:32.995Z,34.00
2024-01-20T03:26:44.207Z,33.80
2024-01-20T03:29:52.644Z,33.60
2024-01-20T03:33:03.216Z,33.50
2024-01-20T03:36:19.669Z,33.30
2024-01-20T03:39:33.209Z,33.00
2024-01-20T03:42:43.050Z,33.20
2024-01-20T03:45:55.820Z,33.10
2024-01-20T03:49:10.207Z,32.90
2024-01-20T03:52:23.205Z,32.70
2024-01-20T03:55:34.683Z,32.60
2024-01-20T03:58:47.099Z,32.50
2024-01-20T04:02:01.174Z,32.40
2024-01-20T04:05:17.131Z,32.30
2024-01-20T04:08:26.460Z,31.90
2024-01-20T04:11:35.641Z,31.90
2024-01-20T04:14:47.369Z,31.90
2024-01-20T04:17:58.955Z,31.80
2024-01-20T04:21:13.268Z,31.80
2024-01-20T04:24:24.124Z,31.80
2024-01-20T04:27:36.780Z,31.70
2024-01-20T04:30:49.503Z,31.70
2024-01-20T04:34:02.451Z,31.70
2024-01-20T04:37:15.161Z,31.70
2024-01-20T04:40:26.877Z,31.70
2024-01-20T04:43:40.553Z,31.60
2024-01-20T04:46:54.013Z,31.50
2024-01-20T04:50:07.608Z,31.50
2024-01-20T04:53:19.577Z,31.60
2024-01-20T04:56:29.887Z,31.50
2024-01-20T04:59:41.853Z,31.30
2024-01-20T05:02:53.814Z,31.30
2024-01-20T05:06:08.623Z,31.20
2024-01-20T05:09:20.217Z,31.20
2024-01-20T05:12:32.419Z,31.20
2024-01-20T05:15:46.102Z,31.20
2024-01-20T05:18:59.990Z,31.10
2024-01-20T05:22:13.955Z,31.00
2024-01-20T05:25:21.472Z,31.00
2024-01-20T05:28:33.906Z,30.90
2024-01-20T05:31:46.109Z,30.90
2024-01-20T05:34:56.677Z,30.80
2024-01-20T05:38:10.519Z,30.90
2024-01-20T05:41:19.658Z,30.90
2024-01-20T05:44:32.912Z,30.90
2024-01-20T05:47:45.910Z,31.30
2024-01-20T05:50:59.668Z,31.90
2024-01-20T05:54:11.856Z,31.80
2024-01-20T05:57:19.652Z,32.00
2024-01-20T06:00:30.826Z,31.90
2024-01-20T06:03:41.146Z,31.90
2024-01-20T06:06:53.713Z,31.80
2024-01-20T06:10:07.024Z,31.80
2024-01-20T06:13:16.137Z,31.70
2024-01-20T06:16:26.941Z,31.70
2024-01-20T06:19:38.491Z,31.70
2024-01-20T06:22:51.858Z,31.20
2024-01-20T06:25:58.423Z,31.10
2024-01-20T06:29:10.396Z,31.30
2024-01-20T06:32:19.816Z,31.30
2024-01-20T06:35:33.078Z,31.30
2024-01-20T06:38:42.395Z,31.30
2024-01-20T06:41:56.831Z,31.30
2024-01-20T06:45:12.522Z,31.20
2024-01-20T06:48:24.984Z,31.20
2024-01-20T06:51:35.787Z,31.10
2024-01-20T06:54:48.469Z,31.20
2024-01-20T06:58:01.059Z,31.20
2024-01-20T07:01:14.413Z,31.20
2024-01-20T07:04:24.141Z,31.20
2024-01-20T07:07:38.699Z,31.20
2024-01-20T07:10:51.463Z,31.40
2024-01-20T07:14:06.085Z,31.60
2024-01-20T07:17:19.235Z,31.70
2024-01-20T07:20:29.972Z,31.70
2024-01-20T07:23:41.176Z,31.80
2024-01-20T07:26:51.896Z,31.70
2024-01-20T07:30:07.839Z,32.10
2024-01-20T07:33:22.856Z,31.90
2024-01-20T07:36:35.250Z,32.00
2024-01-20T07:39:46.293Z,31.70
2024-01-20T07:42:56.572Z,31.60
2024-01-20T07:46:08.910Z,31.70
2024-01-20T07:49:22.089Z,31.90
2024-01-20T07:52:32.625Z,32.50
2024-01-20T07:55:44.232Z,32.00
2024-01-20T07:58:55.961Z,32.00
2024-01-20T08:02:10.501Z,32.00
2024-01-20T08:05:20.974Z,31.90
2024-01-20T08:08:32.557Z,31.90
2024-01-20T08:11:43.599Z,31.80
2024-01-20T08:14:54.509Z,31.80
2024-01-20T08:18:07.469Z,31.80
2024-01-20T08:21:18.069Z,31.70
2024-01-20T08:24:27.417Z,31.50
2024-01-20T08:27:38.266Z,31.80
2024-01-20T08:30:53.113Z,32.50
2024-01-20T08:34:05.651Z,32.00
2024-01-20T08:37:19.884Z,31.90
2024-01-20T08:40:29.746Z,31.80
2024-01-20T08:43:41.761Z,31.60
2024-01-20T08:46:53.691Z,31.60
2024-01-20T08:50:07.932Z,31.50
2024-01-20T08:53:21.026Z,31.60
2024-01-20T08:56:32.649Z,31.50
2024-01-20T08:59:46.378Z,31.00
2024-01-20T09:02:57.846Z,31.00
2024-01-20T09:06:10.078Z,31.10
2024-01-20T09:09:22.863Z,31.20
2024-01-20T09:12:35.602Z,31.20
2024-01-20T09:15:47.140Z,31.20
2024-01-20T09:19:00.632Z,31.20
2024-01-20T09:22:09.665Z,31.30
2024-01-20T09:25:20.585Z,31.10
2024-01-20T09:28:33.544Z,31.10
2024-01-20T09:31:46.261Z,31.10
2024-01-20T09:34:57.477Z,31.00
2024-01-20T09:38:08.840Z,30.90
2024-01-20T09:41:17.752Z,31.10
2024-01-20T09:44:27.819Z,31.40
2024-01-20T09:47:38.109Z,31.30
2024-01-20T09:50:50.928Z,31.30
2024-01-20T09:54:02.677Z,31.30
2024-01-20T09:57:13.861Z,31.30
2024-01-20T10:00:32.193Z,32.00
2024-01-20T10:03:43.454Z,31.30
2024-01-20T10:06:57.989Z,31.30
2024-01-20T10:10:09.762Z,31.30
2024-01-20T10:13:19.443Z,30.70
2024-01-20T10:16:31.501Z,30.80
2024-01-20T10:19:44.831Z,30.90
2024-01-20T10:22:52.986Z,30.90
2024-01-20T10:26:10.019Z,31.00
2024-01-20T10:29:19.878Z,30.80
2024-01-20T10:32:47.620Z,30.90
2024-01-20T10:35:48.915Z,30.90
2024-01-20T10:39:04.868Z,30.90
2024-01-20T10:42:19.956Z,30.90
2024-01-20T10:45:35.921Z,30.90
2024-01-20T10:48:49.089Z,30.80
2024-01-20T10:52:00.779Z,30.90
2024-01-20T10:55:14.529Z,31.20
2024-01-20T10:58:28.931Z,31.20
2024-01-20T11:01:38.646Z,31.30
2024-01-20T11:04:50.477Z,31.30
2024-01-20T11:08:08.519Z,31.30
2024-01-20T11:11:18.542Z,31.20
2024-01-20T11:14:35.057Z,31.30
2024-01-20T11:17:47.791Z,31.30
2024-01-20T11:21:08.702Z,31.30
2024-01-20T11:24:18.933Z,30.80
2024-01-20T11:27:30.266Z,30.70
2024-01-20T11:30:45.986Z,30.80
2024-01-20T11:33:58.745Z,30.80
2024-01-20T11:37:15.210Z,30.80
2024-01-20T11:40:27.330Z,30.90
2024-01-20T11:43:36.849Z,30.90
2024-01-20T11:46:50.402Z,30.90
2024-01-20T11:50:05.318Z,30.90
2024-01-20T11:53:19.175Z,31.10
2024-01-20T11:56:34.865Z,31.40
2024-01-20T11:59:46.612Z,31.30
2024-01-20T12:02:58.454Z,31.40
2024-01-20T12:06:17.239Z,31.40
2024-01-20T12:09:30.754Z,31.30
2024-01-20T12:12:41.487Z,31.40
2024-01-20T12:15:55.287Z,31.90
2024-01-20T12:19:06.810Z,31.40
2024-01-20T12:22:18.188Z,31.50
2024-01-20T12:25:30.408Z,31.50
2024-01-20T12:28:41.885Z,31.50
2024-01-20T12:31:54.550Z,31.60
2024-01-20T12:35:06.534Z,31.60
2024-01-20T12:38:18.417Z,31.60
2024-01-20T12:41:30.804Z,31.70
2024-01-20T12:44:47.116Z,31.70
2024-01-20T12:47:56.356Z,31.70
2024-01-20T12:51:09.618Z,31.80
2024-01-20T12:54:21.205Z,31.80
2024-01-20T12:57:31.586Z,31.80
2024-01-20T13:00:47.075Z,31.80
2024-01-20T13:04:01.849Z,31.90
2024-01-20T13:07:15.317Z,31.90
2024-01-20T13:10:28.968Z,32.10
2024-01-20T13:13:40.753Z,32.00
2024-01-20T13:16:53.191Z,31.90
2024-01-20T13:21:15.294Z,31.00
2024-01-20T13:24:28.894Z,31.70
2024-01-20T13:27:40.629Z,31.70
2024-01-20T13:30:53.098Z,31.70
2024-01-20T13:34:05.131Z,31.70
2024-01-20T13:37:21.363Z,31.60
2024-01-20T13:40:35.549Z,31.70
2024-01-20T13:43:47.336Z,32.00
2024-01-20T13:46:59.359Z,32.30
2024-01-20T13:50:12.986Z,32.40
2024-01-20T13:53:25.078Z,32.50
2024-01-20T13:56:38.964Z,32.40
2024-01-20T13:59:53.107Z,32.40
2024-01-20T14:03:03.129Z,32.40
2024-01-20T14:06:13.660Z,32.40
2024-01-20T14:09:26.155Z,32.30
2024-01-20T14:15:57.429Z,32.50
2024-01-20T14:19:09.444Z,32.30
2024-01-20T14:22:21.181Z,31.40
2024-01-20T14:25:32.804Z,32.20
2024-01-20T14:28:42.628Z,31.70
2024-01-20T14:31:54.678Z,31.70
2024-01-20T14:35:08.261Z,31.60
2024-01-20T14:38:20.890Z,31.60
2024-01-20T14:41:31.991Z,31.70
2024-01-20T14:44:44.449Z,31.70
2024-01-20T14:47:55.255Z,31.60
2024-01-20T14:51:05.170Z,31.80
2024-01-20T14:54:19.091Z,32.10
2024-01-20T14:57:28.772Z,32.00
2024-01-20T15:00:41.790Z,31.90
2024-01-20T15:03:55.434Z,31.50
2024-01-20T15:07:07.366Z,31.40
2024-01-20T15:10:23.493Z,31.20
2024-01-20T15:13:35.439Z,31.20
2024-01-20T15:16:48.092Z,31.30
2024-01-20T15:20:01.092Z,31.30
2024-01-20T15:23:12.865Z,31.30
2024-01-20T15:26:25.012Z,31.20
2024-01-20T15:29:34.059Z,31.20
2024-01-20T15:32:44.833Z,31.20
2024-01-20T15:35:56.649Z,31.10
2024-01-20T15:39:08.252Z,31.10
2024-01-20T15:42:21.515Z,31.00
2024-01-20T15:45:33.221Z,30.90
2024-01-20T15:48:41.517Z,30.90
2024-01-20T15:51:54.128Z,30.90
2024-01-20T15:55:05.980Z,30.80
2024-01-20T15:58:17.766Z,30.80
2024-01-20T16:01:29.813Z,30.70
2024-01-20T16:04:40.892Z,30.60
2024-01-20T16:07:50.616Z,30.60
2024-01-20T16:11:03.652Z,30.10
2024-01-20T16:14:19.588Z,30.60
2024-01-20T16:17:33.342Z,30.70
2024-01-20T16:20:44.276Z,30.60
2024-01-20T16:23:55.264Z,30.50
2024-01-20T16:27:11.170Z,30.50
2024-01-20T16:30:19.438Z,30.40
2024-01-20T16:33:33.208Z,30.50
2024-01-20T16:36:44.465Z,30.40
2024-01-20T16:39:57.151Z,30.40
2024-01-20T16:43:06.876Z,30.20
2024-01-20T16:46:21.241Z,30.30
2024-01-20T16:49:32.584Z,30.20
2024-01-20T16:52:43.968Z,30.10
2024-01-20T16:55:57.003Z,30.10
2024-01-20T16:59:10.275Z,30.00
2024-01-20T17:02:21.536Z,30.10
2024-01-20T17:05:30.528Z,30.70
2024-01-20T17:08:45.884Z,30.00
2024-01-20T17:11:56.459Z,30.00
2024-01-20T17:15:08.750Z,30.00
2024-01-20T17:18:23.662Z,30.00
2024-01-20T17:21:36.745Z,30.00
2024-01-20T17:24:50.249Z,30.00
2024-01-20T17:28:01.677Z,30.00
2024-01-20T17:31:12.681Z,30.60
2024-01-20T17:34:22.973Z,30.10
2024-01-20T17:37:34.947Z,30.20
2024-01-20T17:40:49.854Z,30.30
2024-01-20T17:44:00.437Z,30.40
2024-01-20T17:47:14.057Z,30.30
2024-01-20T17:50:27.723Z,31.00
2024-01-20T17:53:42.347Z,30.40
2024-01-20T17:56:53.791Z,30.00
2024-01-20T18:00:10.106Z,29.90
2024-01-20T18:03:25.470Z,29.90
2024-01-20T18:06:34.838Z,30.00
2024-01-20T18:09:46.099Z,30.30
2024-01-20T18:12:59.060Z,30.50
2024-01-20T18:16:14.883Z,30.20
2024-01-20T18:19:27.531Z,30.10
2024-01-20T18:22:40.859Z,30.20
2024-01-20T18:25:53.418Z,30.30
2024-01-20T18:29:05.152Z,30.30
2024-01-20T18:32:15.049Z,30.40
2024-01-20T18:35:26.995Z,30.50
2024-01-20T18:38:39.977Z,30.60
2024-01-20T18:41:50.948Z,30.60
2024-01-20T18:45:03.676Z,30.60
2024-01-20T18:48:17.281Z,31.00
2024-01-20T18:51:29.462Z,31.00
2024-01-20T18:54:40.662Z,31.10
2024-01-20T18:57:50.001Z,31.10
2024-01-20T19:01:01.050Z,31.10
2024-01-20T19:04:14.617Z,31.20
2024-01-20T19:07:23.994Z,31.10
2024-01-20T19:10:36.321Z,31.20
2024-01-20T19:13:48.207Z,31.20
2024-01-20T19:17:01.721Z,31.30
2024-01-20T19:20:16.024Z,31.40
2024-01-20T19:23:25.587Z,31.30
2024-01-20T19:26:37.646Z,31.40
2024-01-20T19:29:48.392Z,31.50
2024-01-20T19:33:05.560Z,31.60
2024-01-20T19:36:17.891Z,31.70
2024-01-20T19:39:30.767Z,31.70
2024-01-20T19:42:41.517Z,31.90
2024-01-20T19:45:51.578Z,31.60
2024-01-20T19:49:07.925Z,31.00
2024-01-20T19:52:16.765Z,30.90
2024-01-20T19:55:28.428Z,31.20
2024-01-20T19:58:40.963Z,31.10
2024-01-20T20:01:51.728Z,31.20
2024-01-20T20:05:06.385Z,31.40
2024-01-20T20:08:16.670Z,31.50
2024-01-20T20:11:29.246Z,31.50
2024-01-20T20:14:42.664Z,31.40
2024-01-20T20:17:53.810Z,31.40
2024-01-20T20:21:04.523Z,31.50
2024-01-20T20:24:16.390Z,31.30
2024-01-20T20:27:30.050Z,31.20
2024-01-20T20:30:39.751Z,31.50
2024-01-20T20:33:52.461Z,31.70
2024-01-20T20:37:05.577Z,31.80
2024-01-20T20:40:19.476Z,31.80
2024-01-20T20:43:27.806Z,31.80
2024-01-20T20:46:41.201Z,31.60
2024-01-20T20:49:51.062Z,32.00
2024-01-20T20:53:03.527Z,31.10
2024-01-20T20:56:16.828Z,30.90
2024-01-20T20:59:24.775Z,31.20
2024-01-20T21:02:36.816Z,31.40
2024-01-20T21:05:51.862Z,31.30
2024-01-20T21:09:04.421Z,31.40
2024-01-20T21:12:15.248Z,31.30
2024-01-20T21:15:26.436Z,31.40
2024-01-20T21:18:41.959Z,31.40
2024-01-20T21:21:56.336Z,31.30
2024-01-20T21:25:08.403Z,31.10
2024-01-20T21:28:19.896Z,31.10
2024-01-20T21:31:28.475Z,30.90
2024-01-20T21:34:40.082Z,30.80
2024-01-20T21:37:53.277Z,30.90
2024-01-20T21:41:05.887Z,30.80
2024-01-20T21:44:16.155Z,30.70
2024-01-20T21:47:28.711Z,30.70
2024-01-20T21:50:38.097Z,30.70
2024-01-20T21:53:50.001Z,30.70
2024-01-20T21:56:59.610Z,30.60
2024-01-20T22:00:12.394Z,30.50
2024-01-20T22:03:25.942Z,30.50
2024-01-20T22:06:35.860Z,30.60
2024-01-20T22:09:45.938Z,30.60
2024-01-20T22:12:55.776Z,30.60
2024-01-20T22:16:08.961Z,30.60
2024-01-20T22:19:19.207Z,30.60
2024-01-20T22:22:32.808Z,30.60
2024-01-20T22:25:48.780Z,30.50
2024-01-20T22:29:03.263Z,30.50
2024-01-20T22:32:14.383Z,30.50
2024-01-20T22:35:29.745Z,30.50
2024-01-20T22:38:43.033Z,30.40
2024-01-20T22:41:51.739Z,30.40
2024-01-20T22:45:04.831Z,30.50
2024-01-20T22:48:16.878Z,30.40
2024-01-20T22:51:29.590Z,30.30
2024-01-20T22:54:41.655Z,30.30
2024-01-20T22:57:51.978Z,30.30
2024-01-20T23:01:00.518Z,30.20
2024-01-20T23:04:13.482Z,30.20
2024-01-20T23:07:26.304Z,30.20
2024-01-20T23:10:38.756Z,30.20
2024-01-20T23:13:49.632Z,30.20
2024-01-20T23:17:00.442Z,30.20
2024-01-20T23:20:14.671Z,30.10
2024-01-20T23:23:25.551Z,30.20
2024-01-20T23:26:35.346Z,30.10
2024-01-20T23:29:46.020Z,30.00
2024-01-20T23:32:57.619Z,30.10
2024-01-20T23:36:09.074Z,30.00
2024-01-20T23:39:22.562Z,30.00
2024-01-20T23:42:35.308Z,30.00
2024-01-20T23:45:45.294Z,30.00
2024-01-20T23:48:55.398Z,30.00
2024-01-20T23:52:06.371Z,29.90
2024-01-20T23:55:16.922Z,29.90
2024-01-20T23:58:27.238Z,30.00
